Time;durP1;ratioP1;P1;durP2;ratioP2;P2;SDS_P1;SDS_P2;PMS_P1;PMS_P2;Temp;Humidity;BMP_temperature;BMP_pressure;BME280_temperature;BME280_humidity;BME280_pressure;Samples;Min_cycle;Max_cycle;Signal;HPM_P1;HPM_P2
2021/04/19 00:01:23;;;;;;;27.45;22.00;;;;;;;21.66;34.39;102114.16;5054936;28;20375;-77
2021/04/19 00:03:49;;;;;;;30.50;22.88;;;;;;;21.72;34.27;102099.63;5055318;28;20610;-77
2021/04/19 00:06:14;;;;;;;27.65;22.13;;;;;;;21.72;34.26;102107.19;5055434;28;20033;-77
2021/04/19 00:08:40;;;;;;;28.85;22.55;;;;;;;21.64;34.40;102100.63;5055022;28;20377;-78
2021/04/19 00:11:06;;;;;;;29.15;24.70;;;;;;;21.69;34.16;102102.31;5055329;28;20037;-77
2021/04/19 00:13:31;;;;;;;28.52;24.23;;;;;;;21.70;34.16;102103.94;5055294;28;20029;-77
2021/04/19 00:15:57;;;;;;;27.60;21.35;;;;;;;21.65;34.28;102107.78;5055045;28;20059;-89
2021/04/19 00:18:22;;;;;;;27.35;23.17;;;;;;;21.65;34.26;102105.00;5055030;28;20078;-91
2021/04/19 00:20:48;;;;;;;26.85;23.13;;;;;;;21.66;34.19;102101.06;5054862;28;20029;-77
2021/04/19 00:23:14;;;;;;;32.97;23.77;;;;;;;21.61;34.29;102101.31;5054611;28;20025;-77
2021/04/19 00:25:39;;;;;;;26.65;22.50;;;;;;;21.62;34.33;102091.03;5054139;28;20418;-78
2021/04/19 00:28:05;;;;;;;29.40;23.30;;;;;;;21.70;34.05;102096.41;5055227;28;20032;-77
2021/04/19 00:30:31;;;;;;;28.98;23.98;;;;;;;21.70;34.11;102095.59;5054485;28;20074;-79
2021/04/19 00:32:56;;;;;;;26.33;23.55;;;;;;;21.67;34.21;102090.75;5054345;28;20432;-78
2021/04/19 00:35:22;;;;;;;26.40;23.60;;;;;;;21.56;34.25;102094.03;5054863;28;20025;-77
2021/04/19 00:37:48;;;;;;;28.27;24.80;;;;;;;21.51;34.34;102085.94;5054852;28;20104;-78
2021/04/19 00:40:16;;;;;;;25.80;23.20;;;;;;;21.50;34.32;102095.47;5054898;28;20017;-77
2021/04/19 00:42:43;;;;;;;31.25;24.73;;;;;;;21.41;34.41;102092.03;5054786;28;20036;-77
2021/04/19 00:45:10;;;;;;;27.65;24.13;;;;;;;21.37;34.34;102085.56;5054235;28;20025;-84
2021/04/19 00:47:36;;;;;;;29.70;25.50;;;;;;;21.33;34.48;102081.88;5054412;28;20521;-92
2021/04/19 00:50:08;;;;;;;26.88;24.00;;;;;;;21.17;34.70;102079.00;5054242;28;20243;-78
2021/04/19 00:52:34;;;;;;;30.52;25.38;;;;;;;21.27;34.63;102078.53;5054875;28;20379;-77
2021/04/19 00:55:00;;;;;;;28.20;25.20;;;;;;;21.15;34.82;102088.84;5054529;28;20108;-77
2021/04/19 00:57:28;;;;;;;28.60;25.63;;;;;;;21.15;34.78;102083.28;5054616;28;20122;-92
2021/04/19 00:59:53;;;;;;;29.23;25.40;;;;;;;21.12;34.89;102076.47;5054606;28;20032;-92
2021/04/19 01:02:19;;;;;;;30.38;25.42;;;;;;;21.10;34.79;102073.25;5054771;28;20475;-83
2021/04/19 01:04:45;;;;;;;27.52;24.60;;;;;;;21.11;34.90;102077.63;5053634;28;20064;-77
2021/04/19 01:07:10;;;;;;;28.23;25.25;;;;;;;21.14;34.88;102074.16;5054208;28;20044;-77
2021/04/19 01:09:36;;;;;;;26.25;23.45;;;;;;;20.98;35.17;102065.75;5054052;28;20068;-91
2021/04/19 01:12:02;;;;;;;27.88;24.80;;;;;;;20.98;35.19;102062.97;5053732;28;20028;-78
2021/04/19 01:14:27;;;;;;;28.15;25.15;;;;;;;20.98;35.19;102056.59;5054317;28;20029;-77
2021/04/19 01:16:53;;;;;;;28.67;22.85;;;;;;;20.95;35.20;102052.56;5054166;28;20521;-94
2021/04/19 01:19:19;;;;;;;29.48;23.77;;;;;;;20.96;35.12;102058.94;5054036;28;20621;-82
2021/04/19 01:21:44;;;;;;;27.58;24.48;;;;;;;20.97;35.25;102053.03;5036393;28;20025;-91
2021/04/19 01:24:10;;;;;;;25.40;22.80;;;;;;;20.94;35.32;102053.72;5054138;28;20053;-77
2021/04/19 01:26:36;;;;;;;26.30;23.60;;;;;;;20.91;35.24;102051.63;5053902;28;20040;-77
2021/04/19 01:29:02;;;;;;;27.48;23.50;;;;;;;21.00;35.16;102055.06;5053960;28;20368;-78
2021/04/19 01:31:27;;;;;;;28.90;24.83;;;;;;;20.94;35.30;102050.94;5053921;28;20471;-77
2021/04/19 01:33:53;;;;;;;27.00;22.52;;;;;;;20.95;35.28;102055.34;5053584;28;20121;-77
2021/04/19 01:36:18;;;;;;;27.95;23.55;;;;;;;20.93;35.16;102049.34;5052939;28;20086;-77
2021/04/19 01:38:44;;;;;;;26.23;22.52;;;;;;;20.87;35.29;102042.41;5052810;28;20025;-77
2021/04/19 01:41:10;;;;;;;27.52;24.65;;;;;;;20.93;35.23;102046.56;5053503;28;20025;-80
2021/04/19 01:43:35;;;;;;;24.67;21.80;;;;;;;20.82;35.47;102048.19;5053671;28;20021;-77
2021/04/19 01:46:01;;;;;;;25.20;20.92;;;;;;;20.69;35.45;102041.06;5053606;28;20535;-77
2021/04/19 01:48:27;;;;;;;27.65;22.73;;;;;;;20.73;35.48;102044.75;5054221;28;20489;-78
2021/04/19 01:50:54;;;;;;;22.23;20.02;;;;;;;20.71;35.46;102044.31;5053349;28;20053;-78
2021/04/19 01:53:20;;;;;;;25.98;21.20;;;;;;;20.66;35.57;102044.53;5053143;28;20029;-92
2021/04/19 01:55:46;;;;;;;23.27;20.60;;;;;;;20.59;35.58;102042.34;5053377;28;20411;-77
2021/04/19 01:58:15;;;;;;;24.10;20.38;;;;;;;20.53;35.61;102037.38;5053121;28;20028;-77
2021/04/19 02:00:45;;;;;;;23.77;20.63;;;;;;;20.47;35.67;102037.59;5053555;28;20391;-77
2021/04/19 02:03:31;;;;;;;22.60;20.30;;;;;;;20.55;35.50;102043.38;5053501;28;20071;-78
2021/04/19 02:06:09;;;;;;;28.23;19.63;;;;;;;20.55;35.53;102043.38;5053196;28;20037;-78
2021/04/19 02:08:34;;;;;;;23.75;19.13;;;;;;;20.62;35.35;102043.59;5053477;28;20460;-78
2021/04/19 02:11:32;;;;;;;21.02;18.70;;;;;;;20.48;35.50;102028.16;5053111;28;20053;-77
2021/04/19 02:14:30;;;;;;;28.30;20.17;;;;;;;20.45;35.54;102039.94;5052948;28;20056;-77
2021/04/19 02:17:11;;;;;;;25.38;19.23;;;;;;;20.41;35.73;102036.22;5053112;28;20389;-77
2021/04/19 02:20:01;;;;;;;21.13;18.88;;;;;;;20.43;35.51;102036.69;5052686;28;20533;-78
2021/04/19 02:22:38;;;;;;;22.08;18.00;;;;;;;20.49;35.32;102040.88;5053160;28;20048;-79
2021/04/19 02:25:12;;;;;;;27.27;20.23;;;;;;;20.41;35.50;102043.75;5053239;28;20024;-77
2021/04/19 02:27:45;;;;;;;20.83;18.05;;;;;;;20.50;35.34;102038.91;5053299;28;20021;-77
2021/04/19 02:30:15;;;;;;;22.90;18.38;;;;;;;20.27;35.70;102033.00;5053065;28;20099;-85
2021/04/19 02:32:45;;;;;;;;;;;;;;;20.30;35.56;102037.03;5053408;28;20078;-83
2021/04/19 02:35:15;;;;;;;20.65;18.45;;;;;;;20.29;35.51;102032.63;5052857;28;19916;-93
2021/04/19 02:37:41;;;;;;;;;;;;;;;20.03;36.07;102033.81;5053323;28;20033;-77
2021/04/19 02:40:10;;;;;;;21.77;18.88;;;;;;;20.08;35.70;102030.78;5052992;28;19913;-76
2021/04/19 02:42:40;;;;;;;20.90;18.75;;;;;;;20.10;35.76;102033.19;5052517;28;20029;-78
2021/04/19 02:45:08;;;;;;;24.10;19.05;;;;;;;20.13;35.69;102026.97;5051454;28;20033;-77
2021/04/19 02:47:35;;;;;;;21.77;18.60;;;;;;;20.24;35.69;102023.38;5034944;28;20036;-78
2021/04/19 02:50:05;;;;;;;21.50;19.08;;;;;;;20.28;35.42;102031.81;5052617;28;20041;-77
2021/04/19 02:52:31;;;;;;;22.00;18.67;;;;;;;20.30;35.43;102025.94;5035015;28;20044;-77
2021/04/19 02:54:58;;;;;;;24.13;19.65;;;;;;;20.29;35.37;102027.91;5052722;28;20045;-77
2021/04/19 02:57:32;;;;;;;25.23;19.25;;;;;;;20.16;35.43;102024.31;5052759;28;20550;-77
2021/04/19 02:59:59;;;;;;;22.73;18.23;;;;;;;20.24;35.32;102022.56;5052578;28;20025;-87
2021/04/19 03:02:28;;;;;;;22.83;18.45;;;;;;;20.12;35.52;102017.03;5052924;28;20107;-91
2021/04/19 03:04:54;;;;;;;23.45;18.58;;;;;;;20.02;35.55;102023.84;5052741;28;20033;-77
2021/04/19 03:07:25;;;;;;;24.38;19.08;;;;;;;19.92;35.70;102022.34;5018239;28;20048;-77
2021/04/19 03:09:58;;;;;;;22.05;17.55;;;;;;;19.91;35.77;102022.69;5034853;28;20017;-77
2021/04/19 03:12:28;;;;;;;26.52;18.33;;;;;;;19.88;35.79;102020.63;5034978;28;20035;-77
2021/04/19 03:14:59;;;;;;;22.10;19.00;;;;;;;19.84;35.71;102011.34;5052481;28;20479;-77
2021/04/19 03:17:25;;;;;;;30.83;20.08;;;;;;;19.86;35.62;102011.81;5052503;28;20029;-92
2021/04/19 03:20:15;;;;;;;22.17;18.60;;;;;;;19.86;35.71;102012.63;5052649;28;20037;-77
2021/04/19 03:22:44;;;;;;;22.05;18.23;;;;;;;19.89;35.68;102008.38;5047352;28;20041;-77
2021/04/19 03:25:12;;;;;;;22.10;18.63;;;;;;;19.93;35.53;102012.84;5053507;28;20033;-77
2021/04/19 03:27:40;;;;;;;21.80;17.63;;;;;;;19.87;35.70;102016.19;5055122;28;20517;-78
2021/04/19 03:30:08;;;;;;;20.00;17.25;;;;;;;19.83;35.76;102018.88;5056755;28;20116;-93
2021/04/19 03:32:39;;;;;;;18.55;16.65;;;;;;;19.78;35.67;102013.53;5056016;28;20446;-77
2021/04/19 03:35:14;;;;;;;24.80;18.27;;;;;;;19.72;35.74;102006.59;5056101;28;20060;-77
2021/04/19 03:37:44;;;;;;;19.23;16.70;;;;;;;19.77;35.59;102011.13;5056187;28;20493;-77
2021/04/19 03:40:16;;;;;;;20.67;18.35;;;;;;;19.81;35.47;102014.84;5055965;28;20043;-77
2021/04/19 03:42:45;;;;;;;20.15;18.00;;;;;;;19.79;35.47;102006.03;5056094;28;20087;-79
2021/04/19 03:45:12;;;;;;;20.42;17.40;;;;;;;19.67;35.68;102007.66;5056152;28;20029;-77
2021/04/19 03:47:40;;;;;;;21.50;16.48;;;;;;;19.56;35.86;101998.09;5055804;28;20025;-92
2021/04/19 03:50:07;;;;;;;18.95;16.95;;;;;;;19.60;35.73;102003.81;5055635;28;20053;-77
2021/04/19 03:52:37;;;;;;;19.40;16.65;;;;;;;19.61;35.55;101994.34;5055596;28;20108;-77
2021/04/19 03:55:09;;;;;;;25.20;17.42;;;;;;;19.67;35.63;102004.88;5055812;28;20436;-78
2021/04/19 03:57:35;;;;;;;24.08;16.83;;;;;;;19.64;35.55;102004.72;5055851;28;20025;-79
2021/04/19 04:00:11;;;;;;;19.60;16.65;;;;;;;19.59;35.54;101996.66;5055600;28;20025;-76
2021/04/19 04:02:41;;;;;;;18.73;16.83;;;;;;;19.58;35.63;102006.13;5055416;28;20032;-78
2021/04/19 04:05:08;;;;;;;18.73;15.90;;;;;;;19.54;35.69;102003.19;5038141;28;20032;-78
2021/04/19 04:07:34;;;;;;;28.48;17.90;;;;;;;19.55;35.51;102004.00;5037479;28;20037;-77
2021/04/19 04:10:01;;;;;;;21.98;18.83;;;;;;;19.52;35.66;101999.16;5055389;28;20108;-77
2021/04/19 04:12:27;;;;;;;26.50;19.08;;;;;;;19.57;35.58;102004.50;5037869;28;20033;-77
2021/04/19 04:14:55;;;;;;;22.48;17.95;;;;;;;19.54;35.33;102000.41;5055366;28;20405;-77
2021/04/19 04:17:21;;;;;;;23.83;18.52;;;;;;;19.51;35.59;101998.34;5055504;28;20060;-77
2021/04/19 04:19:47;;;;;;;23.02;18.00;;;;;;;19.48;35.57;101995.44;5055159;28;20063;-79
2021/04/19 04:22:14;;;;;;;26.88;19.35;;;;;;;19.51;35.52;101987.25;5055066;28;20103;-92
2021/04/19 04:24:41;;;;;;;33.90;21.52;;;;;;;19.37;35.78;101990.34;5042311;28;20041;-77
2021/04/19 04:27:07;;;;;;;29.90;22.13;;;;;;;19.33;35.81;101986.63;5035162;28;20041;-77
2021/04/19 04:29:33;;;;;;;29.33;20.38;;;;;;;19.29;35.79;101982.13;5034749;28;20112;-77
2021/04/19 04:31:58;;;;;;;38.17;22.80;;;;;;;19.19;36.18;101980.56;5034801;28;20100;-84
2021/04/19 04:34:24;;;;;;;24.67;20.33;;;;;;;19.27;35.89;101976.94;5034935;28;20052;-78
2021/04/19 04:36:50;;;;;;;35.78;23.38;;;;;;;19.28;35.90;101977.72;5034993;28;20384;-76
2021/04/19 04:39:15;;;;;;;28.48;22.75;;;;;;;19.20;35.92;101973.09;5033918;28;20476;-77
2021/04/19 04:41:41;;;;;;;35.03;23.60;;;;;;;19.17;36.06;101980.09;5034548;28;20412;-77
2021/04/19 04:44:14;;;;;;;27.20;20.45;;;;;;;19.22;35.83;101977.13;5035076;28;20393;-77
2021/04/19 04:46:59;;;;;;;29.70;22.70;;;;;;;19.04;36.33;101981.22;5034756;28;20507;-87
2021/04/19 04:49:28;;;;;;;35.25;24.30;;;;;;;19.18;36.06;101975.38;5034704;28;20108;-77
2021/04/19 04:51:58;;;;;;;29.45;22.60;;;;;;;19.10;35.83;101974.31;5033662;28;20037;-76
2021/04/19 04:54:24;;;;;;;29.70;22.98;;;;;;;19.17;36.02;101979.31;5034803;28;20030;-93
2021/04/19 04:56:57;;;;;;;41.60;24.70;;;;;;;19.04;36.19;101973.75;5033877;28;20025;-77
2021/04/19 04:59:24;;;;;;;32.60;23.02;;;;;;;19.14;36.09;101978.03;5034141;28;20021;-77
2021/04/19 05:01:51;;;;;;;39.08;24.30;;;;;;;19.05;36.41;101971.78;5034564;28;20476;-77
2021/04/19 05:04:17;;;;;;;38.72;25.83;;;;;;;19.03;36.40;101974.06;5033014;28;20051;-77
2021/04/19 05:06:44;;;;;;;30.80;22.60;;;;;;;19.04;36.26;101981.22;5034554;28;20055;-94
2021/04/19 05:09:11;;;;;;;33.47;24.60;;;;;;;19.03;36.22;101982.38;5034362;28;20033;-92
2021/04/19 05:11:43;;;;;;;26.13;21.65;;;;;;;18.89;36.48;101988.19;5034384;28;20037;-77
2021/04/19 05:14:09;;;;;;;22.52;19.58;;;;;;;19.05;36.07;101983.66;5034260;28;20025;-77
2021/04/19 05:16:35;;;;;;;44.03;25.70;;;;;;;18.86;36.49;101980.56;5034631;28;20044;-77
2021/04/19 05:19:02;;;;;;;41.35;27.40;;;;;;;18.91;36.34;101985.09;5033997;28;20476;-77
2021/04/19 05:21:28;;;;;;;32.22;24.25;;;;;;;18.88;36.52;101977.44;5034253;28;20491;-77
2021/04/19 05:23:54;;;;;;;40.58;26.50;;;;;;;18.82;36.65;101986.00;5034087;28;20542;-92
2021/04/19 05:26:20;;;;;;;35.08;25.70;;;;;;;18.99;36.51;101981.44;5034049;28;20029;-78
2021/04/19 05:28:47;;;;;;;37.75;24.95;;;;;;;18.92;36.45;101981.19;5015934;28;20036;-77
2021/04/19 05:31:14;;;;;;;34.17;24.50;;;;;;;19.04;36.33;101981.22;5034004;28;20031;-90
2021/04/19 05:33:40;;;;;;;34.38;26.20;;;;;;;19.00;36.45;101980.28;5033872;28;20034;-77
2021/04/19 05:36:09;;;;;;;33.10;24.55;;;;;;;19.20;36.18;101979.44;5033969;28;20040;-77
2021/04/19 05:38:41;;;;;;;38.22;24.40;;;;;;;19.08;36.47;101976.63;5033774;28;20032;-77
2021/04/19 05:41:07;;;;;;;36.25;25.42;;;;;;;19.10;36.52;101972.34;5033861;28;20365;-78
2021/04/19 05:43:34;;;;;;;39.13;23.50;;;;;;;19.19;36.28;101977.00;5033901;28;20551;-77
2021/04/19 05:46:01;;;;;;;39.28;24.95;;;;;;;19.18;36.35;101970.66;5034038;28;20486;-78
2021/04/19 05:48:27;;;;;;;35.97;25.08;;;;;;;19.31;36.00;101975.06;5033841;28;20419;-77
2021/04/19 05:50:57;;;;;;;31.23;24.83;;;;;;;19.19;36.40;101965.91;5032935;28;20046;-77
2021/04/19 05:53:23;;;;;;;;;;;;;;;19.08;36.79;101977.44;5034118;28;20115;-86
2021/04/19 05:55:53;;;;;;;31.75;21.15;;;;;;;19.38;36.12;101972.56;5033521;28;20362;-77
2021/04/19 05:58:28;;;;;;;35.28;24.48;;;;;;;19.45;35.99;101982.28;5033811;28;20033;-77
2021/04/19 06:01:20;;;;;;;40.63;24.58;;;;;;;19.27;36.13;101974.16;5033606;28;20029;-77
2021/04/19 06:04:04;;;;;;;29.80;22.70;;;;;;;19.46;36.09;101975.56;5033445;28;20031;-86
2021/04/19 06:06:55;;;;;;;29.25;23.65;;;;;;;19.33;36.25;101978.31;5032416;28;20056;-76
2021/04/19 06:09:45;;;;;;;29.52;21.55;;;;;;;19.47;36.06;101978.00;5045027;28;20434;-77
2021/04/19 06:12:15;;;;;;;36.08;22.92;;;;;;;19.29;36.41;101974.63;5053547;28;20013;-77
2021/04/19 06:14:45;;;;;;;28.23;22.60;;;;;;;19.57;35.89;101972.06;5052546;28;20025;-77
2021/04/19 06:17:11;;;;;;;;;;;;;;;19.31;36.67;101974.28;5053609;28;20017;-77
2021/04/19 06:19:44;;;;;;;25.48;20.88;;;;;;;19.64;35.79;101949.28;5053431;28;19917;-79
2021/04/19 06:22:20;;;;;;;35.95;21.23;;;;;;;19.50;36.31;101969.00;5053192;28;20082;-77
2021/04/19 06:24:48;;;;;;;34.40;21.40;;;;;;;19.72;35.81;101969.75;5053132;28;20021;-94
2021/04/19 06:27:32;;;;;;;45.13;21.20;;;;;;;19.74;35.96;101968.25;5053161;28;20043;-84
2021/04/19 06:30:15;;;;;;;31.50;20.25;;;;;;;19.73;36.03;101963.88;5052814;28;20056;-77
2021/04/19 06:32:42;;;;;;;44.22;21.42;;;;;;;19.78;36.37;101968.34;5051703;28;20064;-84
2021/04/19 06:35:09;;;;;;;36.25;20.42;;;;;;;19.87;36.03;101969.84;5054804;28;20028;-76
2021/04/19 06:37:34;;;;;;;32.20;20.70;;;;;;;20.02;35.67;101975.88;5050382;28;20032;-76
2021/04/19 06:40:00;;;;;;;46.38;22.52;;;;;;;19.88;36.11;101974.28;5051517;28;20467;-76
2021/04/19 06:42:26;;;;;;;31.60;19.33;;;;;;;20.15;35.69;101971.94;5052309;28;20410;-76
2021/04/19 06:44:52;;;;;;;27.00;18.63;;;;;;;20.21;35.58;101976.09;5034468;28;20033;-76
2021/04/19 06:47:18;;;;;;;46.40;20.70;;;;;;;20.23;35.68;101982.09;5052439;28;20033;-76
2021/04/19 06:49:48;;;;;;;28.42;19.52;;;;;;;20.18;35.68;101974.03;5051571;28;20033;-76
2021/04/19 06:52:15;;;;;;;37.10;17.50;;;;;;;20.26;35.57;101975.06;5052218;28;20037;-88
2021/04/19 06:54:41;;;;;;;28.90;18.13;;;;;;;20.39;35.37;101971.91;5058313;28;20119;-76
2021/04/19 06:57:08;;;;;;;35.83;19.08;;;;;;;20.35;35.42;101968.22;5051562;28;20120;-77
2021/04/19 06:59:36;;;;;;;34.03;19.30;;;;;;;20.32;35.57;101974.44;5052248;28;20491;-86
2021/04/19 07:02:05;;;;;;;37.35;18.42;;;;;;;20.34;35.56;101977.72;5062206;28;20029;-78
2021/04/19 07:04:33;;;;;;;16.27;14.07;;;;;;;20.48;35.32;101989.28;5062381;28;20039;-84
2021/04/19 07:06:59;;;;;;;25.80;16.02;;;;;;;20.54;35.28;101986.25;5056264;28;20039;-76
2021/04/19 07:09:27;;;;;;;30.40;17.38;;;;;;;20.64;35.40;101980.22;5039323;28;20028;-86
2021/04/19 07:12:18;;;;;;;36.67;16.92;;;;;;;20.57;35.54;101975.25;5054578;28;20033;-76
2021/04/19 07:14:47;;;;;;;27.55;14.90;;;;;;;20.71;35.55;101972.91;5054191;28;20040;-78
2021/04/19 07:17:13;;;;;;;29.98;16.27;;;;;;;20.69;35.25;101972.44;5055512;28;20073;-77
2021/04/19 07:19:39;;;;;;;25.77;15.32;;;;;;;20.82;35.04;101964.88;5054166;28;20025;-78
2021/04/19 07:22:05;;;;;;;35.70;16.15;;;;;;;20.68;35.50;101975.56;5053478;28;20037;-79
2021/04/19 07:24:31;;;;;;;17.15;13.13;;;;;;;21.09;34.71;101974.38;5053777;28;20029;-80
2021/04/19 07:26:58;;;;;;;23.88;16.38;;;;;;;21.15;34.72;101972.13;5053456;28;20029;-78
2021/04/19 07:29:24;;;;;;;19.23;13.63;;;;;;;21.08;34.88;101972.72;5035338;28;20098;-79
2021/04/19 07:31:51;;;;;;;25.02;14.65;;;;;;;21.22;34.82;101963.97;5053418;28;20021;-79
2021/04/19 07:34:20;;;;;;;32.15;15.80;;;;;;;21.19;34.79;101961.91;5052707;28;20029;-78
2021/04/19 07:36:56;;;;;;;24.67;15.60;;;;;;;21.21;34.30;101960.38;5035253;28;20040;-79
2021/04/19 07:39:23;;;;;;;39.42;18.42;;;;;;;21.33;34.64;101965.13;5053860;28;20664;-81
2021/04/19 07:41:59;;;;;;;38.03;17.13;;;;;;;21.44;34.33;101968.16;5053061;28;20118;-87
2021/04/19 07:44:40;;;;;;;40.08;18.10;;;;;;;21.28;34.41;101965.38;5052770;28;20379;-88
2021/04/19 07:47:42;;;;;;;18.55;13.48;;;;;;;21.51;34.05;101968.34;5055433;28;20483;-82
2021/04/19 07:50:09;;;;;;;29.63;14.50;;;;;;;21.63;34.06;101961.91;5055827;28;20041;-82
2021/04/19 07:52:57;;;;;;;109.63;29.27;;;;;;;21.60;34.03;101967.00;5055470;28;20025;-78
2021/04/19 07:55:30;;;;;;;20.58;12.50;;;;;;;21.81;33.93;101952.81;5054920;28;20025;-78
2021/04/19 07:57:57;;;;;;;31.98;15.75;;;;;;;21.80;33.99;101956.78;5055248;28;20029;-86
2021/04/19 08:00:31;;;;;;;23.58;13.90;;;;;;;21.75;33.62;101956.22;5055579;28;20033;-89
2021/04/19 08:03:05;;;;;;;36.38;13.95;;;;;;;21.80;33.83;101958.75;5055213;28;20052;-78
2021/04/19 08:05:52;;;;;;;25.98;14.40;;;;;;;22.09;32.94;101961.09;5053832;28;20053;-79
2021/04/19 08:08:27;;;;;;;21.40;13.55;;;;;;;21.88;33.37;101964.13;5054881;28;20106;-88
2021/04/19 08:11:08;;;;;;;19.88;13.68;;;;;;;22.08;33.20;101953.91;5048762;28;20029;-81
2021/04/19 08:13:33;;;;;;;23.92;13.45;;;;;;;22.30;32.88;101948.81;5049306;28;20083;-87
2021/04/19 08:16:18;;;;;;;45.30;17.73;;;;;;;22.26;32.67;101959.88;5050118;28;20032;-81
2021/04/19 08:18:44;;;;;;;17.70;12.63;;;;;;;22.47;32.51;101956.75;5032771;28;20411;-80
2021/04/19 08:21:11;;;;;;;22.30;13.30;;;;;;;22.50;32.52;101944.06;5052374;28;20032;-80
2021/04/19 08:23:43;;;;;;;14.20;12.32;;;;;;;22.52;32.50;101953.69;5053407;28;20033;-81
2021/04/19 08:26:09;;;;;;;21.33;12.80;;;;;;;22.65;32.47;101949.56;5052078;28;20021;-81
2021/04/19 08:28:43;;;;;;;67.32;20.67;;;;;;;22.63;31.91;101939.97;5051750;28;20356;-81
2021/04/19 08:31:09;;;;;;;24.42;12.32;;;;;;;22.67;32.15;101946.41;5034672;28;20067;-82
2021/04/19 08:33:35;;;;;;;18.38;12.15;;;;;;;22.85;31.71;101949.59;5034450;28;20414;-81
2021/04/19 08:36:01;;;;;;;15.98;11.98;;;;;;;22.80;31.58;101939.53;5033924;28;20395;-79
2021/04/19 08:38:29;;;;;;;11.77;10.02;;;;;;;22.68;31.53;101940.50;5033084;28;20025;-80
2021/04/19 08:40:55;;;;;;;15.63;10.43;;;;;;;22.77;31.39;101939.47;5029176;28;20025;-80
2021/04/19 08:43:23;;;;;;;14.20;10.35;;;;;;;22.76;31.35;101933.09;5051889;28;20029;-80
2021/04/19 08:45:50;;;;;;;22.63;11.77;;;;;;;22.78;31.12;101941.06;5052597;28;20029;-81
2021/04/19 08:48:16;;;;;;;12.13;10.00;;;;;;;23.01;30.72;101932.78;5051063;28;20540;-82
2021/04/19 08:50:44;;;;;;;18.80;11.80;;;;;;;22.97;30.77;101922.41;5033999;28;20083;-85
2021/04/19 08:53:14;;;;;;;17.25;9.55;;;;;;;22.68;30.66;101921.00;5035182;28;20029;-80
2021/04/19 08:55:41;;;;;;;12.38;9.70;;;;;;;22.93;30.68;101918.72;5034487;28;20029;-85
2021/04/19 08:58:11;;;;;;;17.08;9.55;;;;;;;23.12;30.28;101920.66;5052018;28;20025;-80
2021/04/19 09:00:50;;;;;;;13.90;9.20;;;;;;;23.50;30.04;101922.53;5051849;28;20032;-79
2021/04/19 09:03:18;;;;;;;22.58;9.85;;;;;;;23.36;29.88;101918.72;5052630;28;20929;-80
2021/04/19 09:05:44;;;;;;;15.50;10.13;;;;;;;23.53;29.69;101926.56;5052407;28;20029;-82
2021/04/19 09:08:18;;;;;;;15.85;10.88;;;;;;;23.61;29.34;101919.94;5051351;28;20047;-77
2021/04/19 09:10:53;;;;;;;10.63;7.80;;;;;;;23.77;29.09;101917.81;5051931;28;20017;-78
2021/04/19 09:13:26;;;;;;;19.30;9.15;;;;;;;23.83;28.67;101917.50;5049101;28;20082;-80
2021/04/19 09:15:52;;;;;;;10.57;9.48;;;;;;;23.92;28.97;101912.44;5032721;28;20021;-78
2021/04/19 09:18:20;;;;;;;17.27;9.93;;;;;;;23.98;28.95;101908.97;5033325;28;20024;-77
2021/04/19 09:20:55;;;;;;;13.13;8.88;;;;;;;23.84;29.40;101913.53;5034726;28;20105;-78
2021/04/19 09:23:32;;;;;;;13.98;10.85;;;;;;;24.10;28.92;101905.13;5035052;28;20029;-79
2021/04/19 09:26:01;;;;;;;16.85;10.82;;;;;;;24.04;29.32;101906.66;5052063;28;20021;-80
2021/04/19 09:28:46;;;;;;;19.75;12.25;;;;;;;23.95;29.49;101909.69;5034780;28;20112;-78
2021/04/19 09:31:13;;;;;;;12.40;10.15;;;;;;;24.13;29.41;101918.34;5020300;28;20025;-80
2021/04/19 09:33:39;;;;;;;12.43;7.22;;;;;;;24.11;29.02;101917.94;5023364;28;20540;-77
2021/04/19 09:36:05;;;;;;;13.55;8.00;;;;;;;24.16;28.40;101914.00;5032052;28;20025;-78
2021/04/19 09:38:31;;;;;;;13.15;9.77;;;;;;;24.27;28.18;101918.56;5030866;28;20025;-76
2021/04/19 09:40:59;;;;;;;15.98;9.68;;;;;;;24.05;28.59;101911.06;5030904;28;20021;-79
2021/04/19 09:43:38;;;;;;;18.10;10.18;;;;;;;24.03;29.02;101917.03;5033024;28;20028;-78
2021/04/19 09:46:09;;;;;;;17.30;9.65;;;;;;;24.20;28.54;101915.66;5032776;28;20033;-79
2021/04/19 09:48:40;;;;;;;16.88;10.23;;;;;;;24.23;28.59;101914.09;5032191;28;20114;-80
2021/04/19 09:51:14;;;;;;;11.63;8.32;;;;;;;24.21;28.16;101913.66;5050306;28;20196;-80
2021/04/19 09:53:44;;;;;;;12.43;9.55;;;;;;;24.42;28.28;101918.78;5050690;28;20039;-79
2021/04/19 09:56:10;;;;;;;14.57;10.20;;;;;;;24.48;28.33;101920.03;5050932;28;20159;-79
2021/04/19 09:58:37;;;;;;;15.18;9.85;;;;;;;24.56;28.36;101911.38;5032319;28;20529;-80
2021/04/19 10:01:04;;;;;;;14.40;10.60;;;;;;;24.51;28.59;101908.09;5032743;28;20037;-80
2021/04/19 10:03:30;;;;;;;12.50;9.55;;;;;;;24.50;28.36;101906.50;5049939;28;20152;-80
2021/04/19 10:06:01;;;;;;;21.60;11.57;;;;;;;24.36;28.58;101918.28;5032621;28;20174;-81
2021/04/19 10:08:28;;;;;;;13.02;9.27;;;;;;;24.50;28.75;101906.50;5049662;28;20530;-80
2021/04/19 10:10:54;;;;;;;14.77;10.30;;;;;;;24.75;28.08;101918.78;5050893;28;20020;-80
2021/04/19 10:13:32;;;;;;;14.73;10.57;;;;;;;24.66;28.33;101915.47;5030755;28;20024;-80
2021/04/19 10:16:17;;;;;;;22.63;11.93;;;;;;;24.23;28.77;101909.31;5030072;28;20048;-80
2021/04/19 10:18:48;;;;;;;14.48;10.38;;;;;;;24.16;28.92;101908.41;5032434;28;20082;-79
2021/04/19 10:21:29;;;;;;;11.68;9.90;;;;;;;24.23;28.80;101902.91;5032489;28;20017;-79
2021/04/19 10:23:55;;;;;;;22.13;17.65;;;;;;;24.32;28.73;101907.06;5050611;28;20039;-84
2021/04/19 10:26:34;;;;;;;19.90;14.25;;;;;;;24.81;28.00;101920.03;5032882;28;20024;-82
2021/04/19 10:29:16;;;;;;;25.15;21.30;;;;;;;24.77;27.91;101916.38;5031870;28;20048;-81
2021/04/19 10:31:47;;;;;;;20.33;14.93;;;;;;;24.89;27.49;101906.94;5033161;28;20115;-83
2021/04/19 10:34:13;;;;;;;15.43;10.23;;;;;;;25.07;27.27;101901.56;5050658;28;20060;-83
2021/04/19 10:36:44;;;;;;;23.95;18.52;;;;;;;25.09;26.86;101905.59;5050924;28;20104;-81
2021/04/19 10:39:13;;;;;;;29.92;12.77;;;;;;;25.04;27.55;101900.34;5051438;28;20028;-85
2021/04/19 10:41:39;;;;;;;21.67;10.43;;;;;;;24.79;27.70;101902.06;5032325;28;20107;-83
2021/04/19 10:44:08;;;;;;;22.63;18.42;;;;;;;24.79;28.25;101902.06;5051427;28;20399;-83
2021/04/19 10:46:39;;;;;;;16.52;11.68;;;;;;;25.14;27.76;101899.63;5033100;28;20059;-82
2021/04/19 10:49:06;;;;;;;30.70;27.83;;;;;;;25.14;28.05;101896.84;5033812;28;20032;-84
2021/04/19 10:51:35;;;;;;;22.60;14.68;;;;;;;25.35;27.79;101893.44;5033057;28;20041;-80
2021/04/19 10:54:06;;;;;;;13.25;10.82;;;;;;;25.43;27.81;101888.72;5033348;28;20028;-79
2021/04/19 10:56:32;;;;;;;28.05;23.52;;;;;;;25.37;28.04;101887.44;5045976;28;20033;-78
2021/04/19 10:59:06;;;;;;;13.25;9.70;;;;;;;25.62;27.29;101887.66;5056021;28;20032;-81
2021/04/19 11:01:37;;;;;;;11.65;8.82;;;;;;;25.27;28.40;101874.19;5046078;28;20495;-84
2021/04/19 11:04:05;;;;;;;18.30;12.02;;;;;;;25.12;29.13;101879.66;5039505;28;20159;-76
2021/04/19 11:06:31;;;;;;;14.38;9.30;;;;;;;24.80;29.59;101873.72;5039887;28;20132;-76
2021/04/19 11:09:07;;;;;;;13.75;8.93;;;;;;;24.37;30.15;101868.81;5028354;28;20462;-76
2021/04/19 11:11:36;;;;;;;15.38;10.30;;;;;;;24.78;29.85;101873.28;5049940;28;20025;-81
2021/04/19 11:14:17;;;;;;;14.05;8.75;;;;;;;25.20;29.04;101868.53;5033863;28;20064;-76
2021/04/19 11:17:02;;;;;;;22.23;10.90;;;;;;;25.33;28.84;101867.06;5051968;28;20028;-85
2021/04/19 11:19:45;;;;;;;14.68;9.65;;;;;;;25.20;29.06;101866.53;5050823;28;20090;-78
2021/04/19 11:22:23;;;;;;;12.70;9.27;;;;;;;24.71;29.96;101872.38;5051281;28;20021;-84
2021/04/19 11:24:50;;;;;;;18.17;9.25;;;;;;;24.27;30.31;101861.91;5050440;28;20024;-79